Time;durP1;ratioP1;P1;durP2;ratioP2;P2;SDS_P1;SDS_P2;PMS_P1;PMS_P2;Temp;Humidity;BMP_temperature;BMP_pressure;BME280_temperature;BME280_humidity;BME280_pressure;Samples;Min_cycle;Max_cycle;Signal;HPM_P1;HPM_P2
2022/06/13 00:00:11;;;;;;;8.13;2.45;;;17.10;99.90;;;;;;5033119;28;20174;-80
2022/06/13 00:02:37;;;;;;;7.28;2.20;;;17.10;99.90;;;;;;5034281;28;20237;-80
2022/06/13 00:05:04;;;;;;;6.70;2.15;;;17.10;99.90;;;;;;5033922;28;20202;-80
2022/06/13 00:07:30;;;;;;;6.32;2.10;;;17.10;99.90;;;;;;5034130;28;20632;-80
2022/06/13 00:09:56;;;;;;;6.15;1.95;;;17.00;99.90;;;;;;5034169;28;20228;-80
2022/06/13 00:12:26;;;;;;;9.93;2.00;;;17.00;99.90;;;;;;5034198;28;20250;-81
2022/06/13 00:14:51;;;;;;;8.95;2.50;;;16.80;99.90;;;;;;5043061;28;20313;-80
2022/06/13 00:17:17;;;;;;;9.13;2.17;;;16.80;99.90;;;;;;5054266;28;20260;-81
2022/06/13 00:19:43;;;;;;;8.23;2.40;;;16.70;99.90;;;;;;5052263;28;20320;-80
2022/06/13 00:22:09;;;;;;;9.18;2.30;;;16.70;99.90;;;;;;5053887;28;20964;-81
2022/06/13 00:24:35;;;;;;;7.18;2.00;;;16.60;99.90;;;;;;5053685;28;20170;-79
2022/06/13 00:27:01;;;;;;;5.20;1.95;;;16.40;99.90;;;;;;5054165;28;20184;-80
2022/06/13 00:29:26;;;;;;;6.93;1.90;;;16.40;99.90;;;;;;5054211;28;20182;-80
2022/06/13 00:31:52;;;;;;;8.07;2.10;;;16.30;99.90;;;;;;5053810;28;20212;-80
2022/06/13 00:34:18;;;;;;;8.60;2.58;;;16.20;99.90;;;;;;5053431;28;20197;-80
2022/06/13 00:36:43;;;;;;;4.18;1.70;;;16.20;99.90;;;;;;5052319;28;20174;-79
2022/06/13 00:39:09;;;;;;;6.00;2.40;;;16.20;99.90;;;;;;5053587;28;20261;-80
2022/06/13 00:41:37;;;;;;;8.93;1.95;;;16.20;99.90;;;;;;5053751;28;20168;-81
2022/06/13 00:44:24;;;;;;;7.88;2.30;;;16.20;99.90;;;;;;5053202;28;20184;-80
2022/06/13 00:46:50;;;;;;;5.78;2.05;;;16.10;99.90;;;;;;5052652;28;20174;-80
2022/06/13 00:49:29;;;;;;;6.57;1.92;;;16.10;99.90;;;;;;5052602;28;20166;-80
2022/06/13 00:52:21;;;;;;;4.88;1.98;;;16.00;99.90;;;;;;5052852;28;20194;-81
2022/06/13 00:54:48;;;;;;;4.20;1.88;;;16.00;99.90;;;;;;5052651;28;20183;-81
2022/06/13 00:57:19;;;;;;;9.80;2.20;;;16.00;99.90;;;;;;5052640;28;20681;-81
2022/06/13 00:59:47;;;;;;;5.88;2.15;;;16.00;99.90;;;;;;5051182;28;20185;-81
2022/06/13 01:02:13;;;;;;;6.85;2.35;;;16.00;99.90;;;;;;5051307;28;20236;-81
2022/06/13 01:04:40;;;;;;;5.63;2.00;;;16.00;99.90;;;;;;5051039;28;20221;-81
2022/06/13 01:07:09;;;;;;;5.72;1.98;;;16.00;99.90;;;;;;5051296;28;20178;-81
2022/06/13 01:12:22;;;;;;;7.25;1.88;;;15.90;99.90;;;;;;5051958;28;20165;-81
2022/06/13 01:15:06;;;;;;;8.57;2.10;;;15.90;99.90;;;;;;5050999;28;20185;-81
2022/06/13 01:17:41;;;;;;;7.40;1.92;;;15.80;99.90;;;;;;5052573;28;20219;-80
2022/06/13 01:20:28;;;;;;;7.47;2.25;;;15.80;99.90;;;;;;5052163;28;20554;-81
2022/06/13 01:23:21;;;;;;;5.35;1.65;;;15.80;99.90;;;;;;5052375;28;20704;-81
2022/06/13 01:26:21;;;;;;;6.95;2.03;;;15.80;99.90;;;;;;5054120;28;20175;-80
2022/06/13 01:29:15;;;;;;;3.72;1.70;;;15.70;99.90;;;;;;5056122;28;20486;-81
2022/06/13 01:32:18;;;;;;;8.20;1.95;;;15.70;99.90;;;;;;5054683;28;20481;-81
2022/06/13 01:35:05;;;;;;;5.35;1.98;;;15.60;99.90;;;;;;5055283;28;20173;-81
2022/06/13 01:38:03;;;;;;;10.93;1.98;;;15.60;99.90;;;;;;5055785;28;20220;-80
2022/06/13 01:41:24;;;;;;;11.95;2.88;;;15.60;99.90;;;;;;5054338;28;20524;-81
2022/06/13 01:46:34;;;;;;;7.95;2.38;;;15.50;99.90;;;;;;5071087;28;20625;-80
2022/06/13 01:49:21;;;;;;;9.32;2.13;;;15.40;99.90;;;;;;5070797;28;20166;-79
2022/06/13 01:52:10;;;;;;;9.27;2.78;;;15.30;99.90;;;;;;5086684;28;20169;-79
2022/06/13 01:54:44;;;;;;;5.82;2.22;;;15.30;99.90;;;;;;5086515;28;20204;-79
2022/06/13 01:57:38;;;;;;;7.72;2.25;;;15.30;99.90;;;;;;5086606;28;20198;-80
2022/06/13 02:00:13;;;;;;;7.53;2.20;;;15.20;99.90;;;;;;5070922;28;20477;-80
2022/06/13 02:02:48;;;;;;;5.55;1.85;;;15.30;99.90;;;;;;5070803;28;20168;-80
2022/06/13 02:05:40;;;;;;;7.43;2.40;;;15.20;99.90;;;;;;5070377;28;20211;-81
2022/06/13 02:08:10;;;;;;;7.68;2.28;;;15.20;99.90;;;;;;5070761;28;20608;-80
2022/06/13 02:10:41;;;;;;;8.55;2.03;;;15.20;99.90;;;;;;5070567;28;20173;-79
2022/06/13 02:13:11;;;;;;;10.18;2.35;;;15.20;99.90;;;;;;5070765;28;20173;-79
2022/06/13 02:15:45;;;;;;;8.02;2.00;;;15.20;99.90;;;;;;5070467;28;20188;-81
2022/06/13 02:18:31;;;;;;;5.80;2.08;;;15.20;99.90;;;;;;5070618;28;20540;-82
2022/06/13 02:21:04;;;;;;;9.02;2.28;;;15.10;99.90;;;;;;5070134;28;20177;-80
2022/06/13 02:26:11;;;;;;;7.80;2.25;;;14.90;99.90;;;;;;5409455;22;20558;-80
2022/06/13 02:28:40;;;;;;;6.93;2.20;;;14.90;99.90;;;;;;5026020;28;20179;-80
2022/06/13 02:31:15;;;;;;;8.68;2.00;;;14.90;99.90;;;;;;5018937;28;20175;-80
2022/06/13 02:33:50;;;;;;;6.82;2.13;;;14.80;99.90;;;;;;5049002;28;20181;-80
2022/06/13 02:36:27;;;;;;;9.93;2.83;;;14.80;99.90;;;;;;5050151;28;20161;-80
2022/06/13 02:39:04;;;;;;;7.72;2.03;;;14.80;99.90;;;;;;5050243;28;20165;-80
2022/06/13 02:41:41;;;;;;;7.53;1.98;;;14.80;99.90;;;;;;5048379;28;20624;-80
2022/06/13 02:44:31;;;;;;;4.80;1.83;;;14.80;99.90;;;;;;5048631;28;20166;-81
2022/06/13 02:46:59;;;;;;;9.52;2.22;;;14.80;99.90;;;;;;5048125;28;20201;-80
2022/06/13 02:49:36;;;;;;;8.82;2.35;;;14.70;99.90;;;;;;5048794;28;20171;-80
2022/06/13 02:52:33;;;;;;;6.00;2.10;;;14.60;99.90;;;;;;5049810;28;20166;-80
2022/06/13 02:55:04;;;;;;;6.45;2.17;;;14.60;99.90;;;;;;5039236;28;20187;-80
2022/06/13 02:58:01;;;;;;;9.20;2.30;;;14.70;99.90;;;;;;5002159;28;20180;-80
2022/06/13 03:00:42;;;;;;;8.60;2.22;;;14.60;99.90;;;;;;5012113;28;20650;-80
2022/06/13 03:03:37;;;;;;;5.03;1.75;;;14.40;99.90;;;;;;4997155;28;20168;-80
2022/06/13 03:06:26;;;;;;;8.70;2.00;;;14.40;99.90;;;;;;4995322;28;20243;-80
2022/06/13 03:09:06;;;;;;;4.72;1.80;;;14.30;99.90;;;;;;4996883;28;20171;-80
2022/06/13 03:11:44;;;;;;;8.30;2.15;;;14.40;99.90;;;;;;4996634;28;20877;-81
2022/06/13 03:14:27;;;;;;;8.88;2.50;;;14.40;99.90;;;;;;4996861;28;20160;-80
2022/06/13 03:17:25;;;;;;;5.82;2.08;;;14.40;99.90;;;;;;5011783;28;20184;-80
2022/06/13 03:20:09;;;;;;;11.75;2.70;;;14.50;99.90;;;;;;4987558;28;20216;-81
2022/06/13 03:22:51;;;;;;;7.32;2.20;;;14.40;99.90;;;;;;4996744;28;20607;-80
2022/06/13 03:26:01;;;;;;;12.00;2.42;;;14.40;99.90;;;;;;5014167;28;20612;-80
2022/06/13 03:28:45;;;;;;;8.30;2.30;;;14.40;99.90;;;;;;4955709;29;20181;-81
2022/06/13 03:31:16;;;;;;;7.65;2.70;;;14.50;99.90;;;;;;4955506;29;20185;-80
2022/06/13 03:33:46;;;;;;;7.70;2.70;;;14.50;99.90;;;;;;4973148;28;20194;-81
2022/06/13 03:36:44;;;;;;;10.30;2.40;;;14.40;99.90;;;;;;4995174;28;20176;-80
2022/06/13 03:39:16;;;;;;;8.27;2.55;;;14.50;99.90;;;;;;4996548;28;20176;-81
2022/06/13 03:41:47;;;;;;;8.48;2.75;;;14.40;99.90;;;;;;4996037;28;20164;-80
2022/06/13 03:44:29;;;;;;;8.63;2.63;;;14.50;99.90;;;;;;4996148;28;20618;-81
2022/06/13 03:47:17;;;;;;;8.48;2.63;;;14.60;99.90;;;;;;4994987;28;20257;-81
2022/06/13 03:50:09;;;;;;;6.90;2.30;;;14.60;99.90;;;;;;4994940;28;20239;-81
2022/06/13 03:52:39;;;;;;;10.00;2.72;;;14.70;99.90;;;;;;4996034;28;20179;-81
2022/06/13 03:55:16;;;;;;;8.45;2.63;;;14.80;99.90;;;;;;4999130;28;20332;-81
2022/06/13 03:57:58;;;;;;;7.40;2.95;;;14.80;99.90;;;;;;5015672;28;20628;-81
2022/06/13 04:00:43;;;;;;;8.32;2.10;;;14.80;99.90;;;;;;5014265;28;20179;-80
2022/06/13 04:03:10;;;;;;;8.90;2.83;;;14.80;99.90;;;;;;5014210;28;20561;-81
2022/06/13 04:05:42;;;;;;;5.00;2.47;;;14.80;99.90;;;;;;5014060;28;20321;-81
2022/06/13 04:08:12;;;;;;;8.98;2.55;;;14.80;99.90;;;;;;5014514;28;20171;-81
2022/06/13 04:10:59;;;;;;;4.55;2.30;;;14.80;99.90;;;;;;5013956;28;20225;-81
2022/06/13 04:13:45;;;;;;;5.05;2.38;;;14.80;99.90;;;;;;5015296;28;20174;-81
2022/06/13 04:16:26;;;;;;;7.25;2.65;;;14.90;99.90;;;;;;5013954;28;20492;-81
2022/06/13 04:19:09;;;;;;;12.18;2.78;;;14.90;99.90;;;;;;5015384;28;20171;-81
2022/06/13 04:21:48;;;;;;;9.80;2.95;;;14.90;99.90;;;;;;5013905;28;20163;-81
2022/06/13 04:24:40;;;;;;;11.30;2.80;;;14.90;99.90;;;;;;5013704;28;20182;-81
2022/06/13 04:27:22;;;;;;;6.13;2.83;;;14.90;99.90;;;;;;4991187;28;20622;-81
2022/06/13 04:30:09;;;;;;;7.88;2.53;;;15.00;99.90;;;;;;5013763;28;20245;-81
2022/06/13 04:32:45;;;;;;;4.65;2.28;;;15.00;99.90;;;;;;5015113;28;20163;-81
2022/06/13 04:35:12;;;;;;;8.65;2.55;;;15.00;99.90;;;;;;5015034;28;20593;-80
2022/06/13 04:37:39;;;;;;;8.18;2.40;;;15.10;99.90;;;;;;5014799;28;20183;-81
2022/06/13 04:40:09;;;;;;;5.35;2.10;;;15.10;99.90;;;;;;5013293;28;20171;-81
2022/06/13 04:42:38;;;;;;;11.93;2.70;;;15.20;99.90;;;;;;5013624;28;20203;-81
2022/06/13 04:45:18;;;;;;;7.55;2.67;;;15.40;99.90;;;;;;5014501;28;20517;-81
2022/06/13 04:47:45;;;;;;;8.75;3.08;;;15.60;99.90;;;;;;5013416;28;20262;-81
2022/06/13 04:50:25;;;;;;;10.85;2.60;;;15.70;99.90;;;;;;5014690;28;20175;-81
2022/06/13 04:52:53;;;;;;;9.25;2.60;;;15.70;99.90;;;;;;5014686;28;20167;-81
2022/06/13 04:55:25;;;;;;;10.27;2.40;;;15.70;99.90;;;;;;5012798;28;20614;-81
2022/06/13 04:57:51;;;;;;;9.98;2.72;;;15.70;99.90;;;;;;5014537;28;20194;-82
2022/06/13 05:00:18;;;;;;;10.52;3.42;;;15.60;99.90;;;;;;5013337;28;20270;-81
2022/06/13 05:02:46;;;;;;;8.43;2.50;;;15.60;99.90;;;;;;5014488;28;20175;-81
2022/06/13 05:05:32;;;;;;;9.65;2.95;;;15.60;99.90;;;;;;5012782;28;20555;-80
2022/06/13 05:07:58;;;;;;;6.07;2.40;;;15.50;99.90;;;;;;5013229;28;20228;-81
2022/06/13 05:10:27;;;;;;;9.60;2.63;;;15.50;99.90;;;;;;5012906;28;20179;-80
2022/06/13 05:12:54;;;;;;;8.23;2.53;;;15.40;99.90;;;;;;5014229;28;20170;-80
2022/06/13 05:15:28;;;;;;;8.02;2.20;;;15.40;99.90;;;;;;5014207;28;20174;-81
2022/06/13 05:18:19;;;;;;;8.45;2.40;;;15.40;99.90;;;;;;5014130;28;20249;-81
2022/06/13 05:20:48;;;;;;;8.38;2.47;;;15.50;99.90;;;;;;5012642;28;20179;-80
2022/06/13 05:23:35;;;;;;;9.43;2.83;;;15.50;99.90;;;;;;5012862;28;20181;-81
2022/06/13 05:26:04;;;;;;;6.35;2.30;;;15.50;99.90;;;;;;5012019;28;20254;-81
2022/06/13 05:28:32;;;;;;;8.57;2.55;;;15.50;99.90;;;;;;5013987;28;20384;-81
2022/06/13 05:31:05;;;;;;;8.68;2.83;;;15.60;99.90;;;;;;5012724;28;20179;-80
2022/06/13 05:33:34;;;;;;;7.80;2.38;;;15.60;99.90;;;;;;5012615;28;20182;-80
2022/06/13 05:36:03;;;;;;;7.70;2.15;;;15.60;99.90;;;;;;5013926;28;20179;-80
2022/06/13 05:38:54;;;;;;;8.63;2.38;;;15.60;99.90;;;;;;5012523;28;20171;-80
2022/06/13 05:41:20;;;;;;;8.82;2.78;;;15.60;99.90;;;;;;5008801;28;20530;-81
2022/06/13 05:43:46;;;;;;;6.75;2.30;;;15.60;99.90;;;;;;5012663;28;20175;-81
2022/06/13 05:46:17;;;;;;;14.07;2.80;;;15.60;99.90;;;;;;5013786;28;20203;-81
2022/06/13 05:48:43;;;;;;;8.90;2.78;;;15.70;99.90;;;;;;5012640;28;20179;-81
2022/06/13 05:51:09;;;;;;;8.18;3.00;;;15.70;99.90;;;;;;5013780;28;20182;-80
2022/06/13 05:53:34;;;;;;;10.63;2.63;;;15.70;99.90;;;;;;5013561;28;20175;-81
2022/06/13 05:56:01;;;;;;;7.82;2.33;;;15.70;99.90;;;;;;5012215;28;20194;-80
2022/06/13 05:58:27;;;;;;;7.47;2.72;;;15.70;99.90;;;;;;5012562;28;20183;-80
2022/06/13 06:00:57;;;;;;;9.85;2.83;;;15.80;99.90;;;;;;5012555;28;20167;-81
2022/06/13 06:03:23;;;;;;;8.93;2.38;;;15.70;99.90;;;;;;5012416;28;20193;-80
2022/06/13 06:05:49;;;;;;;5.32;2.20;;;15.80;99.90;;;;;;5012146;28;20219;-81
2022/06/13 06:08:25;;;;;;;9.48;2.58;;;15.90;99.90;;;;;;5012435;28;20584;-80
2022/06/13 06:10:53;;;;;;;12.98;2.40;;;16.10;99.90;;;;;;5012262;28;20183;-80
2022/06/13 06:13:19;;;;;;;8.05;2.55;;;16.20;99.90;;;;;;5013741;28;20487;-80
2022/06/13 06:15:46;;;;;;;9.48;2.50;;;16.30;99.90;;;;;;5013579;28;20167;-80
2022/06/13 06:18:13;;;;;;;9.57;2.53;;;16.40;99.90;;;;;;5013525;28;20625;-81
2022/06/13 06:20:39;;;;;;;11.18;2.40;;;16.40;99.90;;;;;;5013735;28;20174;-81
2022/06/13 06:23:05;;;;;;;8.95;2.60;;;16.30;99.90;;;;;;5012217;28;20186;-81
2022/06/13 06:25:32;;;;;;;6.30;2.50;;;16.50;99.90;;;;;;5011637;28;20239;-81
2022/06/13 06:27:57;;;;;;;10.40;2.78;;;16.50;99.90;;;;;;5013732;28;20195;-80
2022/06/13 06:30:27;;;;;;;6.97;2.70;;;16.60;99.90;;;;;;5013519;28;20172;-80
2022/06/13 06:32:56;;;;;;;10.27;3.25;;;16.70;99.90;;;;;;5016452;28;20167;-80
2022/06/13 06:35:27;;;;;;;9.57;3.10;;;16.80;99.90;;;;;;5017143;28;20171;-80
2022/06/13 06:37:54;;;;;;;7.43;2.65;;;16.80;99.90;;;;;;5017218;28;20164;-81
2022/06/13 06:40:22;;;;;;;11.13;2.60;;;16.90;99.90;;;;;;5016853;28;20164;-79
2022/06/13 06:42:48;;;;;;;14.27;3.20;;;16.80;99.90;;;;;;5017114;28;20178;-81
2022/06/13 06:45:14;;;;;;;7.93;2.92;;;16.80;99.90;;;;;;5016656;28;20293;-81
2022/06/13 06:47:41;;;;;;;7.60;2.60;;;16.80;99.90;;;;;;5016918;28;20179;-81
2022/06/13 06:50:11;;;;;;;9.40;2.88;;;16.70;99.90;;;;;;5016916;28;20175;-81
2022/06/13 06:52:37;;;;;;;7.40;2.47;;;16.70;99.90;;;;;;5017100;28;20179;-80
2022/06/13 07:00:31;;;;;;;9.30;2.40;;;17.00;99.90;;;;;;5016947;28;20213;-80
2022/06/13 07:02:57;;;;;;;11.75;2.85;;;17.20;99.90;;;;;;5015102;28;20207;-80
2022/06/13 07:05:23;;;;;;;9.40;2.50;;;17.20;99.90;;;;;;5016363;28;20199;-80
2022/06/13 07:07:49;;;;;;;10.27;2.60;;;17.20;99.90;;;;;;5016478;28;20222;-79
2022/06/13 07:10:15;;;;;;;6.10;2.40;;;17.20;99.90;;;;;;5014578;28;20175;-80
2022/06/13 07:12:41;;;;;;;10.95;2.70;;;17.30;99.90;;;;;;5014715;28;20187;-80
2022/06/13 07:15:09;;;;;;;9.45;2.38;;;17.40;99.90;;;;;;5014976;28;20610;-79
2022/06/13 07:17:35;;;;;;;8.05;2.55;;;17.40;99.90;;;;;;5016323;28;20270;-80
2022/06/13 07:20:00;;;;;;;9.93;2.70;;;17.50;99.90;;;;;;5015047;28;20262;-80
2022/06/13 07:22:27;;;;;;;12.10;2.22;;;17.60;99.90;;;;;;5014986;28;20202;-79
2022/06/13 07:24:53;;;;;;;10.90;2.38;;;17.60;99.80;;;;;;5015546;28;20571;-80
2022/06/13 07:27:19;;;;;;;5.38;2.03;;;17.60;99.60;;;;;;5014512;28;20265;-81
2022/06/13 07:29:44;;;;;;;10.23;2.67;;;17.70;99.90;;;;;;5014757;28;20226;-80
2022/06/13 07:32:18;;;;;;;9.43;2.45;;;18.00;99.90;;;;;;5015970;28;20171;-81
2022/06/13 07:34:47;;;;;;;8.32;2.30;;;18.30;99.90;;;;;;5016034;28;20199;-81
2022/06/13 07:38:16;;;;;;;8.80;2.88;;;18.50;99.00;;;;;;5014650;28;20274;-81
2022/06/13 07:40:05;;;;;;;8.00;2.10;;;18.60;99.70;;;;;;5015786;28;20626;-81
2022/06/13 07:42:39;;;;;;;7.97;2.50;;;18.50;98.00;;;;;;5015521;28;20171;-81
2022/06/13 07:45:06;;;;;;;8.65;2.55;;;18.30;97.10;;;;;;5014388;28;20238;-81
2022/06/13 07:47:32;;;;;;;8.10;2.63;;;18.40;98.30;;;;;;5014322;28;20592;-81
2022/06/13 07:49:58;;;;;;;8.45;2.70;;;18.40;98.30;;;;;;5015647;28;20176;-80
2022/06/13 07:52:23;;;;;;;6.10;2.20;;;18.50;97.60;;;;;;5015668;28;20164;-80
2022/06/13 07:54:49;;;;;;;12.23;2.08;;;18.60;97.70;;;;;;5014227;28;20646;-81
2022/06/13 07:57:15;;;;;;;8.13;2.40;;;18.80;98.00;;;;;;5015243;28;20606;-79
2022/06/13 07:59:41;;;;;;;10.13;2.40;;;19.00;96.20;;;;;;5015584;28;20174;-80
2022/06/13 08:02:15;;;;;;;8.77;2.20;;;19.00;95.90;;;;;;5014202;28;20176;-81
2022/06/13 08:04:41;;;;;;;11.18;2.58;;;19.10;97.40;;;;;;5015099;28;20214;-80
2022/06/13 08:07:08;;;;;;;11.98;2.15;;;19.30;97.00;;;;;;5015408;28;20179;-80
2022/06/13 08:09:34;;;;;;;9.10;2.10;;;19.30;97.10;;;;;;5014145;28;20262;-80
2022/06/13 08:11:59;;;;;;;6.70;2.38;;;19.10;96.10;;;;;;5015005;28;20720;-79
2022/06/13 08:14:25;;;;;;;8.10;2.33;;;19.00;96.80;;;;;;5015169;28;20175;-80
2022/06/13 08:16:50;;;;;;;7.63;1.83;;;18.80;96.70;;;;;;5013855;28;20268;-80
2022/06/13 08:19:16;;;;;;;5.88;1.95;;;18.90;96.10;;;;;;5014227;28;20179;-80
2022/06/13 08:21:42;;;;;;;6.25;2.38;;;19.10;96.00;;;;;;5013842;28;20206;-81
2022/06/13 08:24:08;;;;;;;9.77;2.40;;;19.10;96.10;;;;;;5014848;28;20274;-79
2022/06/13 08:26:34;;;;;;;7.75;2.17;;;18.90;96.00;;;;;;5013217;28;20239;-80
2022/06/13 08:28:59;;;;;;;8.13;2.15;;;18.90;95.70;;;;;;5015009;28;20177;-80
2022/06/13 08:31:25;;;;;;;12.10;2.45;;;18.80;96.20;;;;;;5014900;28;20167;-80
2022/06/13 08:33:51;;;;;;;13.55;2.88;;;18.60;96.80;;;;;;5014886;28;20262;-81
2022/06/13 08:36:17;;;;;;;10.18;2.40;;;18.60;97.30;;;;;;5014717;28;20578;-80
2022/06/13 08:38:42;;;;;;;5.82;2.00;;;18.70;96.90;;;;;;5014854;28;20175;-80
2022/06/13 08:41:22;;;;;;;6.97;2.38;;;18.80;97.30;;;;;;5014508;28;20222;-81
2022/06/13 08:44:26;;;;;;;12.43;2.60;;;18.90;96.20;;;;;;5013407;28;20230;-80
2022/06/13 08:47:15;;;;;;;8.18;2.30;;;18.80;96.40;;;;;;5012647;28;20210;-79
2022/06/13 08:49:44;;;;;;;7.78;2.60;;;18.80;96.50;;;;;;5014743;28;20202;-80
2022/06/13 08:52:29;;;;;;;10.13;2.95;;;18.70;96.10;;;;;;5014646;28;20504;-80
2022/06/13 08:55:11;;;;;;;7.05;2.00;;;18.70;96.30;;;;;;5013743;28;20189;-80
2022/06/13 08:57:46;;;;;;;8.68;2.10;;;19.00;96.30;;;;;;5014174;28;20509;-80
2022/06/13 09:00:22;;;;;;;6.53;1.98;;;19.40;95.70;;;;;;5013199;28;20175;-79
2022/06/13 09:03:10;;;;;;;6.70;1.80;;;19.70;95.20;;;;;;5013077;28;20205;-80
2022/06/13 09:05:41;;;;;;;6.75;2.28;;;19.90;94.60;;;;;;5014311;28;20539;-81
2022/06/13 09:08:27;;;;;;;7.47;2.40;;;19.90;94.80;;;;;;5014505;28;20269;-80
2022/06/13 09:11:15;;;;;;;5.15;1.90;;;19.90;93.30;;;;;;5013879;28;20177;-80
2022/06/13 09:13:57;;;;;;;9.18;2.10;;;19.70;94.80;;;;;;5014335;28;20495;-81
2022/06/13 09:16:32;;;;;;;7.88;2.10;;;19.50;93.70;;;;;;5014177;28;20187;-79
2022/06/13 09:19:07;;;;;;;6.15;1.70;;;19.40;93.70;;;;;;5014295;28;20178;-79
2022/06/13 09:22:14;;;;;;;5.88;1.80;;;19.30;93.80;;;;;;5012873;28;20171;-79
2022/06/13 09:24:58;;;;;;;5.35;1.90;;;19.30;94.40;;;;;;5012314;28;20664;-79
2022/06/13 09:27:29;;;;;;;7.00;2.10;;;19.30;95.60;;;;;;5013632;28;20571;-78
2022/06/13 09:30:01;;;;;;;7.25;1.92;;;19.80;92.90;;;;;;5012595;28;20265;-81
2022/06/13 09:32:38;;;;;;;6.35;1.80;;;20.20;92.40;;;;;;5012707;28;20186;-80
2022/06/13 09:35:18;;;;;;;6.05;1.85;;;20.30;92.60;;;;;;5013762;28;20171;-80
2022/06/13 09:37:58;;;;;;;5.63;2.05;;;20.60;92.40;;;;;;5013857;28;20222;-81
2022/06/13 09:40:39;;;;;;;8.13;1.70;;;21.00;91.50;;;;;;5012323;28;20528;-79
2022/06/13 09:43:35;;;;;;;7.40;1.92;;;21.00;91.80;;;;;;5013796;28;20225;-80
2022/06/13 09:46:29;;;;;;;6.05;1.40;;;20.90;91.70;;;;;;5013801;28;20218;-80
2022/06/13 09:49:14;;;;;;;5.25;1.55;;;20.70;90.00;;;;;;5014204;28;20171;-80
2022/06/13 09:51:57;;;;;;;4.80;1.63;;;20.60;90.70;;;;;;5013745;28;20229;-80
2022/06/13 09:54:46;;;;;;;5.28;1.55;;;20.30;91.30;;;;;;5012476;28;20179;-79
2022/06/13 09:57:12;;;;;;;5.53;1.35;;;20.50;90.00;;;;;;5013616;28;20201;-82
2022/06/13 09:59:54;;;;;;;5.95;1.40;;;20.20;89.00;;;;;;5013705;28;20171;-80
2022/06/13 10:02:54;;;;;;;4.20;1.55;;;20.20;90.90;;;;;;5013893;28;20171;-79
2022/06/13 10:05:22;;;;;;;5.25;1.33;;;20.40;90.40;;;;;;5012257;28;20223;-81
2022/06/13 10:08:16;;;;;;;4.40;1.45;;;20.80;90.50;;;;;;5015492;28;20616;-80
2022/06/13 10:10:51;;;;;;;5.43;1.52;;;21.20;89.40;;;;;;5016744;28;20778;-79
2022/06/13 10:13:29;;;;;;;7.18;1.23;;;21.10;87.60;;;;;;5016141;28;20569;-80
2022/06/13 10:16:38;;;;;;;6.50;1.45;;;20.70;87.60;;;;;;5016124;28;20183;-81
2022/06/13 10:19:09;;;;;;;6.93;1.42;;;20.10;90.40;;;;;;4994751;28;20644;-81
2022/06/13 10:21:43;;;;;;;6.32;1.40;;;19.60;91.40;;;;;;5017435;28;20242;-80
2022/06/13 10:24:38;;;;;;;5.63;1.70;;;19.20;91.20;;;;;;5017300;28;20167;-80
2022/06/13 10:27:18;;;;;;;6.40;1.40;;;19.00;92.10;;;;;;5015841;28;20198;-81
2022/06/13 10:29:47;;;;;;;10.63;1.90;;;18.80;90.50;;;;;;5017458;28;20168;-85
2022/06/13 10:32:37;;;;;;;10.52;2.10;;;18.50;94.00;;;;;;5016743;28;20186;-86
2022/06/13 10:35:16;;;;;;;4.43;1.70;;;17.80;98.60;;;;;;5017666;28;20176;-86
2022/06/13 10:38:12;;;;;;;5.10;1.63;;;17.30;99.90;;;;;;5017688;28;20235;-86
2022/06/13 10:40:40;;;;;;;5.60;1.70;;;17.20;99.90;;;;;;5017487;28;20175;-85
2022/06/13 10:43:06;;;;;;;5.28;1.27;;;17.20;99.90;;;;;;5017480;28;20171;-87
2022/06/13 10:45:35;;;;;;;5.78;1.38;;;17.10;98.50;;;;;;5016756;28;20574;-91
2022/06/13 10:48:18;;;;;;;3.85;1.15;;;17.10;98.50;;;;;;5017598;28;20178;-90
2022/06/13 10:51:04;;;;;;;5.97;1.33;;;17.40;99.90;;;;;;5017709;28;20237;-87
2022/06/13 10:53:46;;;;;;;3.90;1.48;;;17.70;98.80;;;;;;5015956;28;20295;-91
2022/06/13 10:56:18;;;;;;;2.05;1.00;;;17.70;99.90;;;;;;5017100;28;20201;-88
2022/06/13 10:58:54;;;;;;;4.97;1.40;;;17.80;99.80;;;;;;5016312;28;20175;-86
2022/06/13 11:01:28;;;;;;;3.58;1.23;;;17.80;99.00;;;;;;5016486;28;20499;-91
2022/06/13 11:04:03;;;;;;;3.70;1.35;;;17.60;97.70;;;;;;5015936;28;20175;-92
2022/06/13 11:06:41;;;;;;;10.05;1.73;;;17.30;99.30;;;;;;5016312;28;20207;-91
2022/06/13 11:09:25;;;;;;;5.53;1.73;;;16.70;99.90;;;;;;5017526;28;20237;-88
2022/06/13 11:11:57;;;;;;;4.43;1.45;;;16.20;99.90;;;;;;5015784;28;20185;-88
2022/06/13 11:14:37;;;;;;;6.47;2.22;;;15.90;99.90;;;;;;5016994;28;20258;-86
2022/06/13 11:23:01;;;;;;;6.75;2.25;;;15.60;99.90;;;;;;4975435;28;20176;-84
2022/06/13 11:25:32;;;;;;;4.90;1.77;;;15.70;99.90;;;;;;4974828;28;20549;-85
2022/06/13 11:28:11;;;;;;;5.95;1.70;;;15.80;99.90;;;;;;4986007;28;20219;-86
2022/06/13 11:30:46;;;;;;;6.70;1.70;;;15.80;99.90;;;;;;4995613;28;20258;-84
2022/06/13 11:33:32;;;;;;;7.53;2.28;;;16.00;99.90;;;;;;4996704;28;20275;-84
2022/06/13 11:36:17;;;;;;;7.38;2.10;;;16.20;99.90;;;;;;4996551;28;20202;-83
2022/06/13 11:39:05;;;;;;;6.13;2.10;;;16.40;99.90;;;;;;4996492;28;20168;-83
2022/06/13 11:41:46;;;;;;;2.85;1.55;;;16.70;99.90;;;;;;4995067;28;20207;-84
2022/06/13 11:44:20;;;;;;;7.85;1.90;;;17.10;99.90;;;;;;4996483;28;20179;-84
2022/06/13 11:47:02;;;;;;;4.18;1.85;;;17.50;99.90;;;;;;4996536;28;20194;-84
2022/06/13 11:49:35;;;;;;;5.53;1.92;;;17.90;99.90;;;;;;4996457;28;20534;-84
2022/06/13 11:52:10;;;;;;;3.90;1.40;;;18.20;99.90;;;;;;4995244;28;20188;-85
2022/06/13 11:54:56;;;;;;;5.57;1.70;;;18.60;99.90;;;;;;4995944;28;20170;-86
2022/06/13 11:57:31;;;;;;;7.00;1.75;;;18.90;99.90;;;;;;5014523;28;20181;-86
2022/06/13 12:00:05;;;;;;;6.78;1.92;;;19.10;99.90;;;;;;5016303;28;20210;-85
2022/06/13 12:02:53;;;;;;;4.18;1.48;;;19.00;99.90;;;;;;5016217;28;20182;-85
2022/06/13 12:05:22;;;;;;;3.38;1.23;;;18.90;99.90;;;;;;5014451;28;20211;-85
2022/06/13 12:07:52;;;;;;;4.72;1.40;;;19.10;99.90;;;;;;5014640;28;20185;-87
2022/06/13 12:10:22;;;;;;;2.35;1.30;;;19.40;99.90;;;;;;5014773;28;20183;-85
2022/06/13 12:12:48;;;;;;;2.83;1.08;;;19.60;99.90;;;;;;5014586;28;20258;-86
2022/06/13 12:15:15;;;;;;;1.90;1.15;;;19.80;99.90;;;;;;5014438;28;20269;-85
2022/06/13 12:18:17;;;;;;;2.85;0.90;;;20.00;99.90;;;;;;5014602;28;20634;-88
2022/06/13 12:21:02;;;;;;;2.17;0.85;;;20.30;99.90;;;;;;5014421;28;20626;-86
2022/06/13 12:23:47;;;;;;;2.78;0.95;;;20.50;99.90;;;;;;5015990;28;20166;-88
2022/06/13 12:26:25;;;;;;;3.00;0.95;;;20.50;99.00;;;;;;5015531;28;20234;-92
2022/06/13 12:29:19;;;;;;;1.65;0.90;;;20.30;98.40;;;;;;5013762;28;20195;-86
2022/06/13 12:32:02;;;;;;;5.45;1.00;;;20.00;97.10;;;;;;5015674;28;20190;-88
2022/06/13 12:34:42;;;;;;;2.63;0.82;;;19.30;96.70;;;;;;5015930;28;20180;-90
2022/06/13 12:37:15;;;;;;;3.28;1.08;;;18.60;97.80;;;;;;5014579;28;20261;-88
2022/06/13 12:39:59;;;;;;;2.42;0.60;;;17.60;99.90;;;;;;5014673;28;20187;-86
2022/06/13 12:42:42;;;;;;;2.63;0.80;;;16.80;99.90;;;;;;5013880;28;20225;-87
2022/06/13 12:45:44;;;;;;;3.45;0.88;;;16.10;99.90;;;;;;5014162;28;20229;-86
2022/06/13 12:48:24;;;;;;;5.43;1.15;;;15.80;99.90;;;;;;5015273;28;20177;-88
2022/06/13 12:51:04;;;;;;;4.78;1.02;;;15.60;99.90;;;;;;5015181;28;20163;-86
2022/06/13 12:53:59;;;;;;;2.40;0.90;;;15.50;99.90;;;;;;5015326;28;20259;-87
2022/06/13 12:56:46;;;;;;;2.45;0.85;;;15.60;99.90;;;;;;5013390;28;20179;-84
2022/06/13 12:59:38;;;;;;;2.38;0.80;;;15.70;99.90;;;;;;5014950;28;20171;-86
2022/06/13 13:02:19;;;;;;;2.38;0.70;;;16.00;99.90;;;;;;5013755;28;20163;-86
2022/06/13 13:05:04;;;;;;;1.55;0.90;;;16.20;99.90;;;;;;5014356;28;20684;-86
2022/06/13 13:07:35;;;;;;;1.30;0.73;;;16.40;99.90;;;;;;5013466;28;20266;-85
2022/06/13 13:10:25;;;;;;;5.70;1.10;;;16.70;99.90;;;;;;5013324;28;20221;-84
2022/06/13 13:13:20;;;;;;;2.85;0.98;;;17.10;99.90;;;;;;5014434;28;20189;-85
2022/06/13 13:16:05;;;;;;;2.10;1.00;;;17.70;99.90;;;;;;5011202;28;20270;-85
2022/06/13 13:18:49;;;;;;;0.90;0.65;;;17.80;99.90;;;;;;5014804;28;20488;-87
2022/06/13 13:21:31;;;;;;;2.45;1.05;;;17.50;99.90;;;;;;5013244;28;20171;-84
2022/06/13 13:24:19;;;;;;;4.28;0.88;;;17.40;99.90;;;;;;5014397;28;20171;-87
2022/06/13 13:26:47;;;;;;;2.78;0.70;;;17.50;99.90;;;;;;5013871;28;20233;-84
2022/06/13 13:29:49;;;;;;;1.45;0.70;;;17.60;99.90;;;;;;5013304;28;20278;-86
2022/06/13 13:32:20;;;;;;;1.25;0.75;;;17.70;99.90;;;;;;4956934;28;20234;-85
2022/06/13 13:34:59;;;;;;;1.75;0.82;;;17.70;99.90;;;;;;5003260;28;20630;-86
2022/06/13 13:37:46;;;;;;;1.05;0.52;;;18.10;99.90;;;;;;5014580;28;20163;-87
2022/06/13 13:40:14;;;;;;;1.58;0.52;;;18.60;99.90;;;;;;5013265;28;20179;-85
2022/06/13 13:42:46;;;;;;;1.88;0.63;;;18.90;99.90;;;;;;5013009;28;20639;-86
2022/06/13 13:45:45;;;;;;;2.30;0.68;;;19.00;99.90;;;;;;5012906;28;20211;-85
2022/06/13 13:48:19;;;;;;;1.83;0.70;;;18.90;99.90;;;;;;5012867;28;20185;-84
2022/06/13 13:50:59;;;;;;;1.80;0.60;;;18.90;99.90;;;;;;5012784;28;20269;-85